Etusivu
METAR-TAF:

METAR-TAF

Lentoasemat :

Multan, Pakistan

Leveyspiiri: 30-12-12N, Pituuspiiri: 71-25-09E, korkeus merenpinnasta: 122 m

Tämänhetkinen sää

Tämä raportti tehtiin 28 minuuttia sitten, kello 12.00 UTC
Tuuli 8 kn etelästä
Lämpötila 38°C
Kosteus 38%
Ilmanpaine 997 hPa
Näkyvyys: 5000 m
usvaa,

METAR: OPMT 221200Z 18008KT 5000 HZ NSC 38/21 Q0997 NOSIG

Aika: 17:28 (12:28 UTC)

Sääennuste

Tämä raportti tehtiin 7 tuntia ja 28 minuuttia sitten, kello 05.00 UTC
Ennuste voimassa 22. päivästä klo 06 UTC - 23. päivään klo 12 UTC
Tuuli 10 kn pohjoisesta
Näkyvyys: 4000 m
Muutamia pilviä 4000 ft:n korkeudessa
Hajanaisia pilviä 10000 ft:n korkeudessa
usvaa
Todennäköisyys 30% :
Ajoittain
23. päivästä klo 00 UTC - 23. päivään klo 04 UTC
Tuuli 5 kn luoteesta
Näkyvyys: 2500 m
Hajanaisia pilviä 10000 ft:n korkeudessa
savua,

TAF: OPMT 220500Z 2206/2312 36010KT 4000 HZ FEW040 SCT100 TX38/2210Z TN26/2301Z PROB30 TEMPO 2300/2304 31005KT 2500 FU SCT100

Säähavainnot ja -ennusteet yli 4000 lentoasemalta (METAR- ja TAF-raportit).

Käytössä olevat sääasemat on merkitty karttaan keltaisilla ja punaisilla pisteillä.

Aseta hiiri pisteen päälle nähdäksesi sääaseman nimen.

Klikkaa sitten nähdäksesi säähavainnot ja -ennusteet.

Kartan vaihtaminen: klikkaa mustalla rastilla varustettuja vihreitä pisteitä, niin voit zoomata sisään; viivalla varustettua vihreää pistettä, niin voit zoomata ulos tai vihreitä nuolia, niin pääset viereisille kartoille.


METAR-TAF: